Flight Track Log - Related Links

Times and Time Zones

All times are in EDT time to prevent confusion due to time zone crossing. See the N50KC flight status page for this flight to view local times or setup timezone preferences in your user account.

Time Position Orientation Groundspeed Altitude Reporting Facility
EDT Latitude Longitude Course Direction KTS MPH feet Rate Location/Type
Mon 05:16:18 PM 34.2567 -77.9714 359° North 151 174 4,500  Level Washington Center
Mon 05:17:16 PM 34.3339 -77.9736 359° North 154 177 9,100 3,610 Climbing Washington Center
Mon 05:18:16 PM 34.4136 -77.9458 16° North 225 259 11,600 2,361 Climbing Washington Center
Mon 05:19:18 PM 34.5144 -77.9133 15° North 302 348 13,900 2,459 Climbing Washington Center
Mon 05:20:18 PM 34.6214 -77.8811 14° North 351 404 16,600 2,644 Climbing Washington Center
Mon 05:21:16 PM 34.7406 -77.8692 North 399 459 19,100 2,571 Climbing Washington Center
Mon 05:22:17 PM 34.8597 -77.8650 North 421 484 21,700 2,262 Climbing Washington Center
Mon 05:23:18 PM 34.9869 -77.8661 360° North 439 505 23,700 1,785 Climbing Washington Center
Mon 05:24:18 PM 35.1122 -77.8619 North 439 505 25,300 1,613 Climbing Washington Center
Mon 05:25:17 PM 35.2458 -77.8606 360° North 451 519 26,900 1,750 Climbing Washington Center
Mon 05:26:18 PM 35.3833 -77.8594 360° North 475 547 28,800 1,934 Climbing Washington Center
Mon 05:27:18 PM 35.5192 -77.8556 North 480 552 30,800 2,034 Climbing Washington Center
Mon 05:28:16 PM 35.6531 -77.8414 North 480 552 32,800 2,017 Climbing Washington Center
Mon 05:29:17 PM 35.7831 -77.8042 13° North 480 552 34,800 2,083 Climbing Washington Center
Mon 05:30:17 PM 35.9092 -77.7489 20° North 475 547 37,000 2,067 Climbing Washington Center
Mon 05:31:16 PM 36.0356 -77.6906 20° North 470 541 38,900 2,000 Climbing Washington Center
Mon 05:32:17 PM 36.1722 -77.6272 21° North 475 547 41,000 1,082 Climbing Washington Center
Mon 05:33:18 PM 36.2919 -77.5764 19° North 468 539 41,100 446 Climbing Washington Center
Mon 05:34:18 PM 36.4117 -77.5200 21° North 461 531 41,900 864 Climbing Washington Center
Mon 05:35:16 PM 36.5169 -77.4761 19° North 451 519 42,800 958 Climbing Washington Center
Mon 05:36:17 PM 36.6408 -77.4169 21° North 451 519 43,800 984 Climbing Washington Center
Mon 05:37:18 PM 36.7647 -77.3628 19° North 456 525 44,800 595 Climbing Washington Center
Mon 05:38:18 PM 36.8867 -77.3058 20° North 456 525 45,000 102 Climbing Washington Center
Mon 05:39:16 PM 37.0083 -77.2511 20° North 456 525 45,000  Level Washington Center
Mon 05:40:16 PM 37.1322 -77.1942 20° North 461 531 45,000  Level Washington Center
Mon 05:41:17 PM 37.2664 -77.1317 20° North 461 531 45,000  Level Washington Center
Mon 05:42:17 PM 37.3883 -77.0739 21° North 469 540 45,000  Level Washington Center
Mon 05:43:18 PM 37.5183 -77.0161 19° North 469 540 45,000 -100 Level Washington Center
Mon 05:44:17 PM 37.6442 -76.9583 20° North 480 552 44,800 -1,311 Descending Washington Center
Mon 05:45:17 PM 37.7656 -76.9025 20° North 468 539 42,400 -2,380 Descending Washington Center
Mon 05:46:18 PM 37.8850 -76.8547 18° North 461 531 40,000 -2,269 Descending Washington Center
Mon 05:47:16 PM 38.0036 -76.8753 352° North 442 509 37,900 -2,085 Descending Washington Center
Mon 05:48:16 PM 38.1203 -76.8983 351° North 418 481 35,900 -1,934 Descending Washington Center
Mon 05:49:17 PM 38.2408 -76.9214 351° North 428 493 34,000 -934 Descending Washington Center
Mon 05:50:18 PM 38.3533 -76.9472 350° North 446 513 34,000  Level Washington Center
Mon 05:51:17 PM 38.4808 -76.9153 11° North 446 513 34,000  Level Washington Center
Mon 05:52:17 PM 38.5739 -76.7761 49° Northeast 440 506 34,000  Level Washington Center
Mon 05:53:18 PM 38.5797 -76.5903 88° East 439 505 34,000  Level Washington Center
Mon 05:54:16 PM 38.5017 -76.4406 124° Southeast 427 491 34,000  Level Washington Center
Mon 05:55:16 PM 38.3750 -76.3914 163° South 388 447 34,000 -198 Level Washington Center
Mon 05:56:17 PM 38.2722 -76.4619 208° Southwest 347 399 33,600 -1,000 Descending Washington Center
Mon 05:57:16 PM 38.1881 -76.5667 224° Southwest 353 406 32,000 -533 Descending Washington Center
Mon 05:59:17 PM 38.1147 -76.8242 250° West 375 432 32,000 -396 Level Washington Center
Mon 06:00:18 PM 38.2139 -76.9078 326° Northwest 338 389 30,800 -1,770 Descending Washington Center
Mon 06:01:19 PM 38.3478 -76.8836 North 343 395 28,400 -2,874 Descending Washington Center
Mon 06:02:17 PM 38.4775 -76.8356 16° North 394 453 25,100 -2,237 Descending Washington Center
Mon 06:03:17 PM 38.5989 -76.7869 17° North 434 499 24,000 -545 Descending Washington Center
Mon 06:04:18 PM 38.7122 -76.7197 25° Northeast 434 499 24,000  Level Washington Center
Mon 06:05:18 PM 38.8194 -76.6175 37° Northeast 458 527 24,000  Level Washington Center
Mon 06:06:16 PM 38.9119 -76.5039 44° Northeast 467 537 24,000  Level Washington Center
Mon 06:07:16 PM 39.0022 -76.4008 42° Northeast 447 514 24,000  Level Washington Center
Mon 06:08:16 PM 39.0636 -76.2572 61° Northeast 441 507 24,000  Level Washington Center
Mon 06:09:17 PM 39.1269 -76.0947 63° Northeast 456 525 24,000  Level Washington Center
Mon 06:10:18 PM 39.1753 -75.9531 66° East 445 512 24,000 -151 Level Washington Center
Mon 06:11:16 PM 39.2611 -75.8997 26° Northeast 335 386 23,700 -1,169 Descending Washington Center
Mon 06:12:16 PM 39.3422 -75.9486 335° Northwest 272 313 21,700 -1,819 Descending Washington Center
Mon 06:13:51 PM 39.4833 -75.9833 349° North 317 365 19,000 -1,081 Descending Philadelphia TRACON
Mon 06:14:57 PM 39.5833 -76.0167 346° North 317 365 18,800 -1,143 Descending Philadelphia TRACON
Mon 06:15:57 PM 39.6667 -75.9667 25° Northeast 342 394 16,600 -2,158 Descending Philadelphia TRACON
Mon 06:16:51 PM 39.7000 -75.8667 67° East 353 406 14,700 -1,842 Descending Philadelphia TRACON
Mon 06:17:51 PM 39.7500 -75.7667 57° Northeast 341 392 13,100 -793 Descending Philadelphia TRACON
Mon 06:18:52 PM 39.7833 -75.6500 70° East 328 377 13,100  Level Philadelphia TRACON
Mon 06:20:03 PM 39.8500 -75.5500 49° Northeast 329 379 13,100 -50 Level Philadelphia TRACON
Mon 06:20:51 PM 39.9167 -75.5000 30° Northeast 322 371 13,000  Descending Philadelphia TRACON
Mon 06:21:52 PM 39.9833 -75.4333 37° Northeast 312 359 13,100  Climbing Philadelphia TRACON
Mon 06:22:51 PM 40.0500 -75.3667 37° Northeast 318 366 13,000  Descending Philadelphia TRACON
Mon 06:23:58 PM 40.1333 -75.2833 37° Northeast 314 361 13,100 90 Climbing Philadelphia TRACON

Login

Don't have an account? Register now (free) for customized features, flight alerts, and more!